createdAt,value
2018-02-23T00:00:23.424Z,27.03
2018-02-23T00:02:51.801Z,25.10
2018-02-23T00:05:19.952Z,23.70
2018-02-23T00:07:48.116Z,23.23
2018-02-23T00:10:16.398Z,26.07
2018-02-23T00:12:44.659Z,26.57
2018-02-23T00:15:12.931Z,23.27
2018-02-23T00:17:41.240Z,23.77
2018-02-23T00:20:09.458Z,22.67
2018-02-23T00:22:42.183Z,21.17
2018-02-23T00:25:10.554Z,25.87
2018-02-23T00:27:38.722Z,23.97
2018-02-23T00:30:06.907Z,22.97
2018-02-23T00:32:35.250Z,23.20
2018-02-23T00:35:03.391Z,20.13
2018-02-23T00:37:31.557Z,22.60
2018-02-23T00:39:59.885Z,20.63
2018-02-23T00:42:28.216Z,20.70
2018-02-23T00:44:56.438Z,20.70
2018-02-23T00:47:25.351Z,22.47
2018-02-23T00:49:53.501Z,20.50
2018-02-23T00:52:22.448Z,21.43
2018-02-23T00:54:50.629Z,20.43
2018-02-23T00:57:18.788Z,19.10
2018-02-23T00:59:47.002Z,19.90
2018-02-23T01:02:15.918Z,17.10
2018-02-23T01:04:44.072Z,23.00
2018-02-23T01:07:12.994Z,22.20
2018-02-23T01:09:41.175Z,21.63
2018-02-23T01:12:09.513Z,21.93
2018-02-23T01:14:39.066Z,23.53
2018-02-23T01:17:07.221Z,25.83
2018-02-23T01:19:35.399Z,24.60
2018-02-23T01:22:03.561Z,23.30
2018-02-23T01:24:31.794Z,24.63
2018-02-23T01:26:59.952Z,23.13
2018-02-23T01:29:28.243Z,22.20
2018-02-23T01:31:56.397Z,23.20
2018-02-23T01:34:24.778Z,25.93
2018-02-23T01:36:52.929Z,30.00
2018-02-23T01:39:21.095Z,23.97
2018-02-23T01:41:49.237Z,29.77
2018-02-23T01:44:18.267Z,26.83
2018-02-23T01:46:46.502Z,23.67
2018-02-23T01:49:15.424Z,26.73
2018-02-23T01:51:43.585Z,27.63
2018-02-23T01:54:11.746Z,26.60
2018-02-23T01:56:41.056Z,24.17
2018-02-23T01:59:09.219Z,29.20
2018-02-23T02:01:37.369Z,26.00
2018-02-23T02:04:05.778Z,24.93
2018-02-23T02:06:35.759Z,22.87
2018-02-23T02:09:04.047Z,26.23
2018-02-23T02:11:32.352Z,26.73
2018-02-23T02:14:00.512Z,28.23
2018-02-23T02:16:29.429Z,27.07
2018-02-23T02:18:57.820Z,30.70
2018-02-23T02:21:26.119Z,30.77
2018-02-23T02:23:54.473Z,28.80
2018-02-23T02:26:22.750Z,27.57
2018-02-23T02:28:50.927Z,31.53
2018-02-23T02:31:19.098Z,28.53
2018-02-23T02:33:48.196Z,30.53
2018-02-23T02:36:16.356Z,31.03
2018-02-23T02:38:44.717Z,31.50
2018-02-23T02:41:14.346Z,29.50
2018-02-23T02:43:42.519Z,32.17
2018-02-23T02:46:10.693Z,34.27
2018-02-23T02:48:38.974Z,34.53
2018-02-23T02:51:07.139Z,32.13
2018-02-23T02:53:35.502Z,36.47
2018-02-23T02:56:04.700Z,36.03
2018-02-23T02:58:32.915Z,34.90
2018-02-23T03:01:01.067Z,33.80
2018-02-23T03:03:29.291Z,35.33
2018-02-23T03:05:57.631Z,36.57
2018-02-23T03:08:25.846Z,41.30
2018-02-23T03:10:54.042Z,38.07
2018-02-23T03:13:22.362Z,39.50
2018-02-23T03:15:50.664Z,36.40
2018-02-23T03:18:18.812Z,38.43
2018-02-23T03:20:47.163Z,37.30
2018-02-23T03:23:15.327Z,37.33
2018-02-23T03:25:44.242Z,37.40
2018-02-23T03:28:12.430Z,35.80
2018-02-23T03:30:40.572Z,38.87
2018-02-23T03:33:08.734Z,39.63
2018-02-23T03:35:36.904Z,37.23
2018-02-23T03:38:05.192Z,40.50
2018-02-23T03:40:33.360Z,39.73
2018-02-23T03:43:02.312Z,38.13
2018-02-23T03:45:30.484Z,42.97
2018-02-23T03:47:58.637Z,40.53
2018-02-23T03:50:26.873Z,40.57
2018-02-23T03:52:55.952Z,43.10
2018-02-23T03:55:24.867Z,40.33
2018-02-23T03:57:53.869Z,39.50
2018-02-23T04:00:22.032Z,40.83
2018-02-23T04:02:51.244Z,42.47
2018-02-23T04:05:19.436Z,43.27
2018-02-23T04:07:47.634Z,42.70
2018-02-23T04:10:15.957Z,43.80
2018-02-23T04:12:44.167Z,40.47
2018-02-23T04:15:12.326Z,43.97
2018-02-23T04:17:40.515Z,43.53
2018-02-23T04:20:08.749Z,42.13
2018-02-23T04:22:36.904Z,46.90
2018-02-23T04:25:05.843Z,45.23
2018-02-23T04:27:34.001Z,42.70
2018-02-23T04:30:02.149Z,41.93
2018-02-23T04:32:31.079Z,45.90
2018-02-23T04:34:59.281Z,44.20
2018-02-23T04:37:27.572Z,43.57
2018-02-23T04:39:55.974Z,44.87
2018-02-23T04:42:24.159Z,43.60
2018-02-23T04:44:53.090Z,45.67
2018-02-23T04:47:21.251Z,46.50
2018-02-23T04:49:49.467Z,43.10
2018-02-23T04:52:17.763Z,46.40
2018-02-23T04:54:46.675Z,47.33
2018-02-23T04:57:17.627Z,45.13
2018-02-23T04:59:47.985Z,48.53
2018-02-23T05:02:17.231Z,44.77
2018-02-23T05:04:45.388Z,48.17
2018-02-23T05:07:14.348Z,45.73
2018-02-23T05:09:43.303Z,47.83
2018-02-23T05:12:11.533Z,50.77
2018-02-23T05:14:40.258Z,51.30
2018-02-23T05:17:08.549Z,51.63
2018-02-23T05:19:36.803Z,50.60
2018-02-23T05:22:07.307Z,47.17
2018-02-23T05:24:35.622Z,48.90
2018-02-23T05:27:03.881Z,49.50
2018-02-23T05:29:32.020Z,49.97
2018-02-23T05:32:00.195Z,46.50
2018-02-23T05:34:28.337Z,49.43
2018-02-23T05:36:56.575Z,47.47
2018-02-23T05:39:25.491Z,52.70
2018-02-23T05:41:54.295Z,52.57
2018-02-23T05:44:22.664Z,55.17
2018-02-23T05:46:50.836Z,52.60
2018-02-23T05:49:19.037Z,52.13
2018-02-23T05:51:47.498Z,49.77
2018-02-23T05:54:16.541Z,55.10
2018-02-23T05:56:45.995Z,54.03
2018-02-23T05:59:14.697Z,51.53
2018-02-23T06:01:42.865Z,54.10
2018-02-23T06:04:11.025Z,50.60
2018-02-23T06:06:39.189Z,53.60
2018-02-23T06:09:07.455Z,53.80
2018-02-23T06:11:35.756Z,54.60
2018-02-23T06:14:04.024Z,56.13
2018-02-23T06:16:32.183Z,58.30
2018-02-23T06:19:00.342Z,54.97
2018-02-23T06:21:28.612Z,52.03
2018-02-23T06:23:57.696Z,57.23
2018-02-23T06:26:26.610Z,58.20
2018-02-23T06:28:54.752Z,56.83
2018-02-23T06:31:23.025Z,57.70
2018-02-23T06:33:51.148Z,62.13
2018-02-23T06:36:19.307Z,52.33
2018-02-23T06:38:48.449Z,60.57
2018-02-23T06:41:16.767Z,58.40
2018-02-23T06:43:45.684Z,57.67
2018-02-23T06:46:13.935Z,54.80
2018-02-23T06:48:42.963Z,55.97
2018-02-23T06:51:11.127Z,52.43
2018-02-23T06:53:39.285Z,60.57
2018-02-23T06:56:07.453Z,59.57
2018-02-23T06:58:35.614Z,44.80
2018-02-23T07:01:04.543Z,45.77
2018-02-23T07:03:32.698Z,47.93
2018-02-23T07:06:02.085Z,47.13
2018-02-23T07:08:31.104Z,47.93
2018-02-23T07:11:00.128Z,46.77
2018-02-23T07:13:28.290Z,47.80
2018-02-23T07:15:56.454Z,49.00
2018-02-23T07:18:24.585Z,52.03
2018-02-23T07:20:53.684Z,50.83
2018-02-23T07:23:22.745Z,48.70
2018-02-23T07:25:50.902Z,54.23
2018-02-23T07:28:19.260Z,51.00
2018-02-23T07:30:47.448Z,58.70
2018-02-23T07:33:15.716Z,57.10
2018-02-23T07:35:43.938Z,52.53
2018-02-23T07:38:12.390Z,50.97
2018-02-23T07:40:40.555Z,50.70
2018-02-23T07:43:08.730Z,54.50
2018-02-23T07:45:36.982Z,50.93
2018-02-23T07:48:05.435Z,50.17
2018-02-23T07:50:34.463Z,48.97
2018-02-23T07:53:02.627Z,50.20
2018-02-23T07:55:30.797Z,49.60
2018-02-23T07:57:59.164Z,48.80
2018-02-23T08:00:27.329Z,45.27
2018-02-23T08:02:55.536Z,49.07
2018-02-23T08:05:23.702Z,46.43
2018-02-23T08:07:52.727Z,44.27
2018-02-23T08:10:20.896Z,41.87
2018-02-23T08:12:49.682Z,45.47
2018-02-23T08:15:17.837Z,43.67
2018-02-23T08:17:46.013Z,42.70
2018-02-23T08:20:14.386Z,37.67
2018-02-23T08:22:42.568Z,39.10
2018-02-23T08:25:11.654Z,41.50
2018-02-23T08:27:39.833Z,38.70
2018-02-23T08:30:08.073Z,41.30
2018-02-23T08:32:36.977Z,41.53
2018-02-23T08:35:05.242Z,36.93
2018-02-23T08:37:34.243Z,38.43
2018-02-23T08:40:02.395Z,39.53
2018-02-23T08:42:30.550Z,36.40
2018-02-23T08:44:58.735Z,34.77
2018-02-23T08:47:26.954Z,35.10
2018-02-23T08:49:55.116Z,35.37
2018-02-23T08:52:24.196Z,37.07
2018-02-23T08:54:53.141Z,36.97
2018-02-23T08:57:22.230Z,36.53
2018-02-23T08:59:50.393Z,33.70
2018-02-23T09:02:18.622Z,34.50
2018-02-23T09:04:46.805Z,37.10
2018-02-23T09:07:15.811Z,33.57
2018-02-23T09:09:44.720Z,34.93
2018-02-23T09:12:12.920Z,34.27
2018-02-23T09:14:41.744Z,32.70
2018-02-23T09:17:10.802Z,35.93
2018-02-23T09:19:39.786Z,33.23
2018-02-23T09:22:07.940Z,34.23
2018-02-23T09:24:36.301Z,30.13
2018-02-23T09:27:05.212Z,32.80
2018-02-23T09:29:33.377Z,30.70
2018-02-23T09:32:01.741Z,30.07
2018-02-23T09:34:37.739Z,27.63
2018-02-23T09:37:05.926Z,28.43
2018-02-23T09:39:34.115Z,30.13
2018-02-23T09:42:02.390Z,30.50
2018-02-23T09:44:30.526Z,30.60
2018-02-23T09:46:58.663Z,29.50
2018-02-23T09:49:27.968Z,29.90
2018-02-23T09:51:56.865Z,29.07
2018-02-23T09:54:25.952Z,26.73
2018-02-23T09:56:54.871Z,27.03
2018-02-23T09:59:23.038Z,25.97
2018-02-23T10:01:51.164Z,27.40
2018-02-23T10:04:19.323Z,25.00
2018-02-23T10:06:47.741Z,24.03
2018-02-23T10:09:16.651Z,24.17
2018-02-23T10:11:45.069Z,24.07
2018-02-23T10:14:13.214Z,24.67
2018-02-23T10:16:41.434Z,23.77
2018-02-23T10:19:09.647Z,24.13
2018-02-23T10:21:38.200Z,24.00
2018-02-23T10:24:06.387Z,25.50
2018-02-23T10:26:35.327Z,23.23
2018-02-23T10:29:03.763Z,23.40
2018-02-23T10:31:32.933Z,21.20
2018-02-23T10:34:01.101Z,23.97
2018-02-23T10:36:29.407Z,22.87
2018-02-23T10:38:58.310Z,22.97
2018-02-23T10:41:26.607Z,23.20
2018-02-23T10:43:54.755Z,22.43
2018-02-23T10:46:27.953Z,18.93
2018-02-23T10:48:56.136Z,20.23
2018-02-23T10:51:24.368Z,18.63
2018-02-23T10:53:52.528Z,19.30
2018-02-23T10:56:20.669Z,19.00
2018-02-23T10:58:48.817Z,19.50
2018-02-23T11:01:17.824Z,20.13
2018-02-23T11:03:46.172Z,20.53
2018-02-23T11:06:14.330Z,18.93
2018-02-23T11:08:42.544Z,19.43
2018-02-23T11:11:10.685Z,20.87
2018-02-23T11:13:39.093Z,17.90
2018-02-23T11:16:08.280Z,19.90
2018-02-23T11:18:36.485Z,18.87
2018-02-23T11:21:04.941Z,17.47
2018-02-23T11:23:33.832Z,17.17
2018-02-23T11:26:02.064Z,18.80
2018-02-23T11:28:30.427Z,19.33
2018-02-23T11:30:59.394Z,18.77
2018-02-23T11:33:27.552Z,16.43
2018-02-23T11:35:56.468Z,15.23
2018-02-23T11:38:24.753Z,15.50
2018-02-23T11:40:53.455Z,16.90
2018-02-23T11:43:21.626Z,13.70
2018-02-23T11:45:49.794Z,13.80
2018-02-23T11:48:18.156Z,13.07
2018-02-23T11:50:46.332Z,11.40
2018-02-23T11:53:14.488Z,13.07
2018-02-23T11:55:42.684Z,12.37
2018-02-23T11:58:10.889Z,13.47
2018-02-23T12:00:39.198Z,13.37
2018-02-23T12:03:08.112Z,12.60
2018-02-23T12:05:36.299Z,12.27
2018-02-23T12:08:04.447Z,12.70
2018-02-23T12:10:32.594Z,11.47
2018-02-23T12:13:01.518Z,14.60
2018-02-23T12:15:29.674Z,12.67
2018-02-23T12:17:58.577Z,12.40
2018-02-23T12:20:27.550Z,12.37
2018-02-23T12:22:56.501Z,12.30
2018-02-23T12:25:24.721Z,13.93
2018-02-23T12:27:53.640Z,12.73
2018-02-23T12:30:21.883Z,13.37
2018-02-23T12:32:50.024Z,14.67
2018-02-23T12:35:18.370Z,11.13
2018-02-23T12:37:46.526Z,11.13
2018-02-23T12:40:14.800Z,11.57
2018-02-23T12:42:42.963Z,11.67
2018-02-23T12:45:11.101Z,11.53
2018-02-23T12:47:39.310Z,13.83
2018-02-23T12:50:07.605Z,13.40
2018-02-23T12:52:35.880Z,12.03
2018-02-23T12:55:04.011Z,11.77
2018-02-23T12:57:32.169Z,9.97
2018-02-23T13:00:00.436Z,13.23
2018-02-23T13:02:28.604Z,11.83
2018-02-23T13:04:56.775Z,13.27
2018-02-23T13:07:25.477Z,12.80
2018-02-23T13:09:53.630Z,10.77
2018-02-23T13:12:21.777Z,10.07
2018-02-23T13:14:55.668Z,9.30
2018-02-23T13:17:24.772Z,11.60
2018-02-23T13:19:53.666Z,10.63
2018-02-23T13:22:21.797Z,10.87
2018-02-23T13:24:49.963Z,9.57
2018-02-23T13:27:19.877Z,12.87
2018-02-23T13:29:48.193Z,10.27
2018-02-23T13:32:16.369Z,10.93
2018-02-23T13:34:45.344Z,11.67
2018-02-23T13:37:13.545Z,9.40
2018-02-23T13:39:42.320Z,11.40
2018-02-23T13:42:11.517Z,14.37
2018-02-23T13:44:40.610Z,9.90
2018-02-23T13:47:09.542Z,10.00
2018-02-23T13:49:37.679Z,11.30
2018-02-23T13:52:06.574Z,11.00
2018-02-23T13:54:34.760Z,10.13
2018-02-23T13:57:03.203Z,12.27
2018-02-23T13:59:31.441Z,11.30
2018-02-23T14:01:59.717Z,10.17
2018-02-23T14:04:28.046Z,9.73
2018-02-23T14:07:02.725Z,11.80
2018-02-23T14:09:30.861Z,12.57
2018-02-23T14:11:59.045Z,9.97
2018-02-23T14:14:27.237Z,10.80
2018-02-23T14:16:55.432Z,8.80
2018-02-23T14:19:23.534Z,9.27
2018-02-23T14:21:51.707Z,10.73
2018-02-23T14:24:19.851Z,10.30
2018-02-23T14:26:47.988Z,9.77
2018-02-23T14:29:16.176Z,11.00
2018-02-23T14:31:44.384Z,10.10
2018-02-23T14:34:12.602Z,10.40
2018-02-23T14:36:41.555Z,11.53
2018-02-23T14:39:09.959Z,11.07
2018-02-23T14:41:38.863Z,10.00
2018-02-23T14:44:07.934Z,10.87
2018-02-23T14:46:36.188Z,10.10
2018-02-23T14:49:16.128Z,10.43
2018-02-23T14:51:44.753Z,13.40
2018-02-23T14:54:13.656Z,10.03
2018-02-23T14:56:42.578Z,11.27
2018-02-23T14:59:11.712Z,11.73
2018-02-23T15:01:39.857Z,10.33
2018-02-23T15:04:08.191Z,11.60
2018-02-23T15:06:36.375Z,10.13
2018-02-23T15:09:04.597Z,9.77
2018-02-23T15:11:32.753Z,11.33
2018-02-23T15:14:01.025Z,11.43
2018-02-23T15:16:29.281Z,10.67
2018-02-23T15:18:57.484Z,10.70
2018-02-23T15:21:25.841Z,11.73
2018-02-23T15:23:54.095Z,12.17
2018-02-23T15:26:23.051Z,13.13
2018-02-23T15:28:51.516Z,12.07
2018-02-23T15:31:31.665Z,9.43
2018-02-23T15:33:59.934Z,11.63
2018-02-23T15:36:28.071Z,12.17
2018-02-23T15:38:56.223Z,11.80
2018-02-23T15:41:24.363Z,11.97
2018-02-23T15:43:52.613Z,14.40
2018-02-23T15:46:20.917Z,11.57
2018-02-23T15:48:54.951Z,10.07
2018-02-23T15:51:38.803Z,14.33
2018-02-23T15:54:07.716Z,10.47
2018-02-23T15:56:36.637Z,13.13
2018-02-23T15:59:04.971Z,11.70
2018-02-23T16:01:33.885Z,12.57
2018-02-23T16:04:02.047Z,14.50
2018-02-23T16:06:31.141Z,12.70
2018-02-23T16:09:00.215Z,10.60
2018-02-23T16:11:28.362Z,11.20
2018-02-23T16:13:57.178Z,10.00
2018-02-23T16:16:26.372Z,11.63
2018-02-23T16:18:54.527Z,10.83
2018-02-23T16:21:22.677Z,14.50
2018-02-23T16:23:50.889Z,11.73
2018-02-23T16:26:19.693Z,12.03
2018-02-23T16:28:49.428Z,11.37
2018-02-23T16:31:17.703Z,10.33
2018-02-23T16:33:46.093Z,11.47
2018-02-23T16:36:14.286Z,11.07
2018-02-23T16:38:42.444Z,10.60
2018-02-23T16:41:10.613Z,10.33
2018-02-23T16:43:38.767Z,12.13
2018-02-23T16:46:07.117Z,11.90
2018-02-23T16:48:35.396Z,11.97
2018-02-23T16:51:04.462Z,11.33
2018-02-23T16:53:32.607Z,10.73
2018-02-23T16:56:00.809Z,11.23
2018-02-23T16:58:29.012Z,10.40
2018-02-23T17:00:57.199Z,10.77
2018-02-23T17:03:25.384Z,10.13
2018-02-23T17:05:54.313Z,10.50
2018-02-23T17:08:22.478Z,11.50
2018-02-23T17:10:51.402Z,11.60
2018-02-23T17:13:21.248Z,11.90
2018-02-23T17:15:49.418Z,12.93
2018-02-23T17:18:17.591Z,11.93
2018-02-23T17:20:45.996Z,10.80
2018-02-23T17:23:14.168Z,11.90
2018-02-23T17:25:42.329Z,13.63
2018-02-23T17:28:10.616Z,11.43
2018-02-23T17:30:38.971Z,12.17
2018-02-23T17:33:07.891Z,16.53
2018-02-23T17:35:36.068Z,13.20
2018-02-23T17:38:04.349Z,14.20
2018-02-23T17:40:32.519Z,11.80
2018-02-23T17:43:00.790Z,10.17
2018-02-23T17:45:29.029Z,12.57
2018-02-23T17:47:57.264Z,11.40
2018-02-23T17:50:25.576Z,12.37
2018-02-23T17:52:53.860Z,11.77
2018-02-23T17:55:22.787Z,11.60
2018-02-23T17:57:50.987Z,14.10
2018-02-23T18:00:20.076Z,12.03
2018-02-23T18:02:49.855Z,11.47
2018-02-23T18:05:18.028Z,13.10
2018-02-23T18:07:46.290Z,12.93
2018-02-23T18:10:15.207Z,12.10
2018-02-23T18:12:43.575Z,19.30
2018-02-23T18:15:11.863Z,12.17
2018-02-23T18:17:40.062Z,14.20
2018-02-23T18:20:08.403Z,15.80
2018-02-23T18:22:36.726Z,25.23
2018-02-23T18:25:04.895Z,13.23
2018-02-23T18:27:33.558Z,13.23
2018-02-23T18:30:01.735Z,13.20
2018-02-23T18:32:29.908Z,16.27
2018-02-23T18:34:58.094Z,13.80
2018-02-23T18:37:26.262Z,13.77
2018-02-23T18:39:54.601Z,15.43
2018-02-23T18:42:23.621Z,13.07
2018-02-23T18:44:52.068Z,14.00
2018-02-23T18:47:20.491Z,14.43
2018-02-23T18:49:48.674Z,13.77
2018-02-23T18:52:17.612Z,13.70
2018-02-23T18:54:45.969Z,13.50
2018-02-23T18:57:14.297Z,15.23
2018-02-23T18:59:42.471Z,12.17
2018-02-23T19:02:10.717Z,14.83
2018-02-23T19:04:39.665Z,12.33
2018-02-23T19:07:08.025Z,15.30
2018-02-23T19:09:36.177Z,17.67
2018-02-23T19:12:04.368Z,14.97
2018-02-23T19:14:33.362Z,13.83
2018-02-23T19:17:01.536Z,14.97
2018-02-23T19:19:29.876Z,14.87
2018-02-23T19:21:58.873Z,17.10
2018-02-23T19:24:27.269Z,18.73
2018-02-23T19:26:55.527Z,21.47
2018-02-23T19:29:24.203Z,15.27
2018-02-23T19:31:53.187Z,20.43
2018-02-23T19:34:21.559Z,17.53
2018-02-23T19:36:49.742Z,27.57
2018-02-23T19:39:18.246Z,20.97
2018-02-23T19:41:47.218Z,29.97
2018-02-23T19:44:16.228Z,20.77
2018-02-23T19:46:45.153Z,20.93
2018-02-23T19:49:13.331Z,22.13
2018-02-23T19:51:41.669Z,15.10
2018-02-23T19:54:09.838Z,16.27
2018-02-23T19:56:38.891Z,17.17
2018-02-23T19:59:07.072Z,17.50
2018-02-23T20:01:35.251Z,16.53
2018-02-23T20:04:03.505Z,16.23
2018-02-23T20:06:32.608Z,15.67
2018-02-23T20:09:01.062Z,29.13
2018-02-23T20:11:29.275Z,16.97
2018-02-23T20:13:58.210Z,20.43
2018-02-23T20:16:26.461Z,19.80
2018-02-23T20:18:54.916Z,19.23
2018-02-23T20:21:23.101Z,22.47
2018-02-23T20:23:51.425Z,20.20
2018-02-23T20:26:19.608Z,18.10
2018-02-23T20:28:47.980Z,18.43
2018-02-23T20:31:16.172Z,19.50
2018-02-23T20:33:44.396Z,22.87
2018-02-23T20:36:12.597Z,22.47
2018-02-23T20:38:41.036Z,21.43
2018-02-23T20:41:09.217Z,20.57
2018-02-23T20:43:37.484Z,15.30
2018-02-23T20:46:05.660Z,18.93
2018-02-23T20:48:33.841Z,16.30
2018-02-23T20:51:02.877Z,16.43
2018-02-23T20:53:31.053Z,18.60
2018-02-23T20:55:59.574Z,17.87
2018-02-23T20:58:27.786Z,16.83
2018-02-23T21:00:56.151Z,15.47
2018-02-23T21:03:25.273Z,15.53
2018-02-23T21:05:53.454Z,16.90
2018-02-23T21:08:22.522Z,17.50
2018-02-23T21:10:51.465Z,15.40
2018-02-23T21:13:20.427Z,20.40
2018-02-23T21:15:48.609Z,16.80
2018-02-23T21:18:16.808Z,17.97
2018-02-23T21:20:45.230Z,17.17
2018-02-23T21:23:14.176Z,17.80
2018-02-23T21:25:42.688Z,18.83
2018-02-23T21:28:10.922Z,19.17
2018-02-23T21:30:39.086Z,16.97
2018-02-23T21:33:08.550Z,18.90
2018-02-23T21:35:36.977Z,17.83
2018-02-23T21:38:05.166Z,17.10
2018-02-23T21:40:33.374Z,15.37
2018-02-23T21:43:01.644Z,18.87
2018-02-23T21:45:30.600Z,16.87
2018-02-23T21:47:58.835Z,15.77
2018-02-23T21:50:28.040Z,15.73
2018-02-23T21:55:30.911Z,18.87
2018-02-23T21:57:59.842Z,18.40
2018-02-23T22:00:28.000Z,17.30
2018-02-23T22:02:56.954Z,16.97
2018-02-23T22:05:25.144Z,16.10
2018-02-23T22:07:53.305Z,16.23
2018-02-23T22:10:21.453Z,18.17
2018-02-23T22:12:49.601Z,16.90
2018-02-23T22:15:17.864Z,17.37
2018-02-23T22:17:47.583Z,18.57
2018-02-23T22:20:15.773Z,19.37
2018-02-23T22:22:44.608Z,18.77
2018-02-23T22:25:13.074Z,20.07
2018-02-23T22:27:41.350Z,17.57
2018-02-23T22:30:09.590Z,17.27
2018-02-23T22:32:37.835Z,16.53
2018-02-23T22:35:06.201Z,18.53
2018-02-23T22:37:35.292Z,17.93
2018-02-23T22:40:04.854Z,16.33
2018-02-23T22:42:33.424Z,18.37
2018-02-23T22:45:01.788Z,18.73
2018-02-23T22:47:29.975Z,20.30
2018-02-23T22:49:58.247Z,20.43
2018-02-23T22:52:26.526Z,17.27
2018-02-23T22:54:54.755Z,21.27
2018-02-23T22:57:23.072Z,22.43
2018-02-23T22:59:51.992Z,19.90
2018-02-23T23:02:20.191Z,21.50
2018-02-23T23:04:48.396Z,18.80
2018-02-23T23:07:17.329Z,21.50
2018-02-23T23:09:45.584Z,21.87
2018-02-23T23:12:13.792Z,22.47
2018-02-23T23:14:41.950Z,23.57
2018-02-23T23:17:10.308Z,22.47
2018-02-23T23:19:38.491Z,24.47
2018-02-23T23:22:06.687Z,23.40
2018-02-23T23:24:34.888Z,23.13
2018-02-23T23:27:12.530Z,22.67
2018-02-23T23:29:49.119Z,20.57
2018-02-23T23:32:18.485Z,20.87
2018-02-23T23:34:51.289Z,23.43
2018-02-23T23:37:20.668Z,23.03
2018-02-23T23:39:49.600Z,21.73
2018-02-23T23:42:17.762Z,24.17
2018-02-23T23:44:45.939Z,22.47
2018-02-23T23:47:14.830Z,22.63
2018-02-23T23:49:43.118Z,21.33
2018-02-23T23:52:11.274Z,23.57
2018-02-23T23:54:39.424Z,21.77
2018-02-23T23:57:08.481Z,23.40
2018-02-23T23:59:36.657Z,23.40
